Time;durP1;ratioP1;P1;durP2;ratioP2;P2;SDS_P1;SDS_P2;PMS_P1;PMS_P2;Temp;Humidity;BMP_temperature;BMP_pressure;BME280_temperature;BME280_humidity;BME280_pressure;Samples;Min_cycle;Max_cycle;Signal;HPM_P1;HPM_P2
2021/05/13 00:00:28;;;;;;;8.93;8.02;;;12.10;99.90;;;;;;4973477;28;20495;-44
2021/05/13 00:02:54;;;;;;;13.05;8.18;;;12.10;99.90;;;;;;4975000;28;20377;-44
2021/05/13 00:05:19;;;;;;;8.70;7.70;;;12.10;99.90;;;;;;4973238;28;20105;-45
2021/05/13 00:07:45;;;;;;;8.98;8.07;;;12.10;99.90;;;;;;4974625;28;20027;-46
2021/05/13 00:10:15;;;;;;;9.70;7.65;;;12.10;99.90;;;;;;4974870;28;20562;-45
2021/05/13 00:12:54;;;;;;;9.77;7.60;;;12.00;99.90;;;;;;4974835;28;20019;-47
2021/05/13 00:15:28;;;;;;;7.90;7.15;;;11.90;99.90;;;;;;4974663;28;20093;-43
2021/05/13 00:17:54;;;;;;;9.82;7.53;;;11.80;99.90;;;;;;4974597;28;20031;-44
2021/05/13 00:20:32;;;;;;;8.85;7.93;;;11.80;99.90;;;;;;4974765;28;20068;-48
2021/05/13 00:22:59;;;;;;;9.35;8.45;;;11.80;99.90;;;;;;4974903;28;20396;-46
2021/05/13 00:25:25;;;;;;;13.20;9.60;;;11.90;99.90;;;;;;4974219;28;20054;-47
2021/05/13 00:27:52;;;;;;;11.13;9.32;;;11.80;99.90;;;;;;4974305;28;20026;-44
2021/05/13 00:30:18;;;;;;;14.82;9.77;;;11.70;99.90;;;;;;4974128;28;20500;-48
2021/05/13 00:32:45;;;;;;;11.10;9.75;;;11.60;99.90;;;;;;4973843;28;20404;-43
2021/05/13 00:35:13;;;;;;;15.40;10.70;;;11.60;99.90;;;;;;4974025;28;20094;-44
2021/05/13 00:37:40;;;;;;;12.73;10.45;;;11.60;99.90;;;;;;4974154;28;20110;-47
2021/05/13 00:40:08;;;;;;;12.35;9.45;;;11.60;99.90;;;;;;4974529;28;20038;-45
2021/05/13 00:42:33;;;;;;;15.02;11.98;;;11.60;99.90;;;;;;4973931;28;20035;-45
2021/05/13 00:45:00;;;;;;;12.10;9.98;;;11.60;99.90;;;;;;4973919;28;20102;-42
2021/05/13 00:47:28;;;;;;;10.35;9.23;;;11.60;99.90;;;;;;4974022;28;20057;-44
2021/05/13 00:49:54;;;;;;;12.02;10.23;;;11.60;99.90;;;;;;4973907;28;20484;-42
2021/05/13 00:52:22;;;;;;;11.93;10.00;;;11.50;99.90;;;;;;4974017;28;20085;-43
2021/05/13 00:54:49;;;;;;;11.50;10.30;;;11.40;99.90;;;;;;4973905;28;20031;-45
2021/05/13 00:57:15;;;;;;;11.52;9.82;;;11.40;99.90;;;;;;4973959;28;20059;-47
2021/05/13 00:59:44;;;;;;;10.27;9.27;;;11.40;99.90;;;;;;4974280;28;20065;-46
2021/05/13 01:02:11;;;;;;;10.45;9.15;;;11.40;99.90;;;;;;4973647;28;20023;-47
2021/05/13 01:04:36;;;;;;;11.50;10.27;;;11.40;99.90;;;;;;4973739;28;20396;-46
2021/05/13 01:07:03;;;;;;;12.60;9.68;;;11.40;99.90;;;;;;4973853;28;20027;-47
2021/05/13 01:09:31;;;;;;;13.50;9.43;;;11.40;99.90;;;;;;4972246;28;20019;-48
2021/05/13 01:12:03;;;;;;;11.98;9.25;;;11.40;99.90;;;;;;4973215;28;20030;-45
2021/05/13 01:19:41;;;;;;;12.48;8.68;;;11.30;99.90;;;;;;4979417;28;20433;-43
2021/05/13 01:22:07;;;;;;;8.85;8.05;;;11.30;99.90;;;;;;4978270;28;20030;-45
2021/05/13 01:24:33;;;;;;;11.27;8.75;;;11.20;99.90;;;;;;4978814;28;20499;-46
2021/05/13 01:26:58;;;;;;;9.43;8.52;;;11.20;99.90;;;;;;4978930;28;20019;-46
2021/05/13 01:29:26;;;;;;;10.55;9.07;;;11.20;99.90;;;;;;4975228;28;20496;-42
2021/05/13 01:31:53;;;;;;;11.82;8.02;;;11.20;99.90;;;;;;4973659;28;20399;-43
2021/05/13 01:34:19;;;;;;;14.13;9.30;;;11.20;99.90;;;;;;4972838;28;20046;-43
2021/05/13 01:36:45;;;;;;;9.85;8.85;;;11.20;99.90;;;;;;4973429;28;20023;-42
2021/05/13 01:39:11;;;;;;;20.92;9.02;;;11.10;99.90;;;;;;4973015;28;20085;-47
2021/05/13 01:41:38;;;;;;;9.50;7.85;;;11.10;99.90;;;;;;4973435;28;20420;-45
2021/05/13 01:44:05;;;;;;;11.15;8.93;;;11.00;99.90;;;;;;4971480;28;20077;-43
2021/05/13 01:46:31;;;;;;;10.05;8.85;;;11.00;99.90;;;;;;4973006;28;20600;-44
2021/05/13 01:48:56;;;;;;;13.27;9.63;;;11.00;99.90;;;;;;4972943;28;20039;-49
2021/05/13 01:51:22;;;;;;;10.02;9.02;;;11.00;99.90;;;;;;4972931;28;20106;-48
2021/05/13 01:53:48;;;;;;;9.90;9.00;;;11.00;99.90;;;;;;4972678;28;20061;-45
2021/05/13 01:56:14;;;;;;;11.35;10.15;;;11.00;99.90;;;;;;4973507;28;20392;-42
2021/05/13 01:58:40;;;;;;;9.73;8.73;;;11.00;99.90;;;;;;4972658;28;20034;-44
2021/05/13 02:01:09;;;;;;;11.52;9.75;;;11.00;99.90;;;;;;4972961;28;20022;-42
2021/05/13 02:03:35;;;;;;;13.18;11.77;;;11.00;99.90;;;;;;4972747;28;20031;-44
2021/05/13 02:06:01;;;;;;;12.70;11.43;;;11.10;99.90;;;;;;4972628;28;20019;-47
2021/05/13 02:08:26;;;;;;;15.05;11.85;;;10.90;99.90;;;;;;4972527;28;20038;-49
2021/05/13 02:10:52;;;;;;;14.45;12.98;;;10.90;99.90;;;;;;4973220;28;20034;-42
2021/05/13 02:13:17;;;;;;;14.00;12.05;;;10.80;99.90;;;;;;4973574;28;20027;-43
2021/05/13 02:15:43;;;;;;;11.50;10.30;;;10.80;99.90;;;;;;4973341;28;20023;-46
2021/05/13 02:18:08;;;;;;;10.13;9.05;;;10.70;99.90;;;;;;4972530;28;20392;-43
2021/05/13 02:20:34;;;;;;;9.57;8.52;;;10.70;99.90;;;;;;4972354;28;20031;-43
2021/05/13 02:23:00;;;;;;;9.32;8.52;;;10.60;99.90;;;;;;4971898;28;20039;-41
2021/05/13 02:25:28;;;;;;;9.35;8.45;;;10.60;99.90;;;;;;4972205;28;20030;-45
2021/05/13 02:27:54;;;;;;;10.25;9.25;;;10.50;99.90;;;;;;4972539;28;20030;-40
2021/05/13 02:30:20;;;;;;;10.02;9.02;;;10.40;99.90;;;;;;4972229;28;20050;-43
2021/05/13 02:32:46;;;;;;;14.38;9.18;;;10.40;99.90;;;;;;4971846;28;20448;-46
2021/05/13 02:35:13;;;;;;;12.45;9.48;;;10.40;99.90;;;;;;4972082;28;20031;-46
2021/05/13 02:37:39;;;;;;;11.55;8.18;;;10.30;99.90;;;;;;4972149;28;20460;-42
2021/05/13 02:40:06;;;;;;;7.63;7.03;;;10.40;99.90;;;;;;4972138;28;20030;-42
2021/05/13 02:42:31;;;;;;;8.40;7.60;;;10.40;99.90;;;;;;4972280;28;20030;-45
2021/05/13 02:44:57;;;;;;;9.48;8.20;;;10.40;99.90;;;;;;4972009;28;20030;-44
2021/05/13 02:47:22;;;;;;;12.18;8.18;;;10.30;99.90;;;;;;4972551;28;20058;-45
2021/05/13 02:49:48;;;;;;;11.07;8.40;;;10.30;99.90;;;;;;4972114;28;20081;-43
2021/05/13 02:52:13;;;;;;;8.98;8.00;;;10.20;99.90;;;;;;4972088;28;20045;-49
2021/05/13 02:54:39;;;;;;;10.77;8.60;;;10.20;99.90;;;;;;4971817;28;20496;-48
2021/05/13 02:57:04;;;;;;;9.95;9.05;;;10.30;99.90;;;;;;4972112;28;20031;-48
2021/05/13 02:59:47;;;;;;;11.85;10.63;;;10.30;99.90;;;;;;4971954;28;20034;-47
2021/05/13 03:02:14;;;;;;;12.32;9.05;;;10.30;99.90;;;;;;4971790;28;20102;-46
2021/05/13 03:04:40;;;;;;;9.48;8.57;;;10.20;99.90;;;;;;4971557;28;20073;-44
2021/05/13 03:07:06;;;;;;;9.38;8.50;;;10.00;99.90;;;;;;4971641;28;20408;-48
2021/05/13 03:09:34;;;;;;;9.70;8.15;;;10.00;99.90;;;;;;4971894;28;20026;-43
2021/05/13 03:12:00;;;;;;;8.90;8.02;;;9.90;99.90;;;;;;4971764;28;20053;-43
2021/05/13 03:14:25;;;;;;;8.25;7.55;;;9.80;99.90;;;;;;4971502;28;20031;-43
2021/05/13 03:16:51;;;;;;;9.13;8.25;;;9.80;99.90;;;;;;4971806;28;20528;-45
2021/05/13 03:19:22;;;;;;;10.88;8.52;;;9.80;99.90;;;;;;4971659;28;20035;-43
2021/05/13 03:21:51;;;;;;;8.27;7.53;;;9.80;99.90;;;;;;4971463;28;20118;-46
2021/05/13 03:24:44;;;;;;;9.32;7.13;;;9.80;99.90;;;;;;4971157;28;20035;-47
2021/05/13 03:29:39;;;;;;;13.45;8.02;;;9.90;99.90;;;;;;4971294;28;20031;-42
2021/05/13 03:32:05;;;;;;;10.98;7.35;;;10.00;99.90;;;;;;4970925;28;20037;-44
2021/05/13 03:34:31;;;;;;;49.28;9.63;;;10.00;99.90;;;;;;4973621;28;20034;-43
2021/05/13 03:36:56;;;;;;;13.57;10.45;;;10.00;99.90;;;;;;4975077;28;20046;-43
2021/05/13 03:39:22;;;;;;;11.50;9.73;;;10.00;99.90;;;;;;4975271;28;20042;-43
2021/05/13 03:41:47;;;;;;;10.32;9.32;;;9.90;99.90;;;;;;4975262;28;20054;-42
2021/05/13 03:44:13;;;;;;;14.05;10.38;;;9.90;99.90;;;;;;4974823;28;20496;-46
2021/05/13 03:46:38;;;;;;;14.40;10.10;;;9.90;99.90;;;;;;4975104;28;20019;-45
2021/05/13 03:49:04;;;;;;;18.63;11.05;;;10.00;99.90;;;;;;4975044;28;20030;-43
2021/05/13 03:51:29;;;;;;;40.60;10.68;;;10.00;99.90;;;;;;4975065;28;20031;-43
2021/05/13 03:53:55;;;;;;;36.75;9.25;;;10.10;99.90;;;;;;4974935;28;20539;-43
2021/05/13 03:56:21;;;;;;;46.90;10.68;;;10.10;99.90;;;;;;4975715;28;20115;-45
2021/05/13 03:58:52;;;;;;;13.13;11.05;;;10.10;99.90;;;;;;4975087;28;20051;-43
2021/05/13 04:01:31;;;;;;;19.13;10.90;;;10.10;99.90;;;;;;4974778;28;20720;-43
2021/05/13 04:03:57;;;;;;;40.28;11.63;;;10.10;99.90;;;;;;4974713;28;20476;-44
2021/05/13 04:06:23;;;;;;;36.90;12.32;;;10.10;99.90;;;;;;4974398;28;20081;-43
2021/05/13 04:08:49;;;;;;;12.52;11.23;;;10.10;99.90;;;;;;4974795;28;20050;-46
2021/05/13 04:11:16;;;;;;;10.43;9.43;;;10.10;99.90;;;;;;4974825;28;20488;-50
2021/05/13 04:13:42;;;;;;;11.90;10.32;;;10.10;99.90;;;;;;4974373;28;20057;-43
2021/05/13 04:16:08;;;;;;;15.88;9.82;;;10.20;99.90;;;;;;4974508;28;20038;-44
2021/05/13 04:18:34;;;;;;;18.80;9.70;;;10.10;99.90;;;;;;4974740;28;20047;-45
2021/05/13 04:21:00;;;;;;;51.50;10.10;;;10.00;99.90;;;;;;4974577;28;20029;-43
2021/05/13 04:23:25;;;;;;;10.20;8.70;;;10.10;99.90;;;;;;4974291;28;20023;-43
2021/05/13 04:25:51;;;;;;;11.45;9.88;;;10.10;99.90;;;;;;4974596;28;20022;-42
2021/05/13 04:28:16;;;;;;;10.20;9.20;;;10.00;99.90;;;;;;4974411;28;20058;-43
2021/05/13 04:30:42;;;;;;;11.40;10.30;;;10.10;99.90;;;;;;4974216;28;20554;-46
2021/05/13 04:33:08;;;;;;;49.83;10.95;;;10.10;99.90;;;;;;4974094;28;20107;-44
2021/05/13 04:35:33;;;;;;;23.85;10.73;;;10.20;99.90;;;;;;4974264;28;20027;-47
2021/05/13 04:37:59;;;;;;;52.75;11.93;;;10.20;99.90;;;;;;4974319;28;20396;-47
2021/05/13 04:40:24;;;;;;;26.30;11.93;;;10.10;99.90;;;;;;4974278;28;20026;-46
2021/05/13 04:42:50;;;;;;;33.05;11.05;;;10.10;99.90;;;;;;4974052;28;20114;-46
2021/05/13 04:45:16;;;;;;;27.15;11.52;;;10.00;99.90;;;;;;4973240;28;20574;-46
2021/05/13 04:50:08;;;;;;;11.43;9.93;;;9.80;99.90;;;;;;4973908;28;20369;-46
2021/05/13 04:52:36;;;;;;;42.20;10.25;;;9.80;99.90;;;;;;4974048;28;20418;-47
2021/05/13 04:55:03;;;;;;;14.45;10.20;;;9.80;99.90;;;;;;4974949;28;20030;-45
2021/05/13 04:57:29;;;;;;;33.88;8.75;;;9.90;99.90;;;;;;4973963;28;20023;-42
2021/05/13 04:59:55;;;;;;;19.25;8.65;;;9.90;99.90;;;;;;4973803;28;20033;-46
2021/05/13 05:02:21;;;;;;;18.35;8.32;;;9.90;99.90;;;;;;4973703;28;20105;-45
2021/05/13 05:04:46;;;;;;;9.15;8.27;;;9.90;99.90;;;;;;4973807;28;20462;-46
2021/05/13 05:07:12;;;;;;;27.40;8.52;;;10.00;99.90;;;;;;4973832;28;20035;-43
2021/05/13 05:09:38;;;;;;;13.85;7.93;;;10.10;99.90;;;;;;4973777;28;20499;-46
2021/05/13 05:12:06;;;;;;;43.30;8.70;;;10.10;99.90;;;;;;4973924;28;20101;-46
2021/05/13 05:14:32;;;;;;;53.47;8.40;;;10.10;99.90;;;;;;4973623;28;20047;-46
2021/05/13 05:16:58;;;;;;;13.68;7.68;;;10.10;99.90;;;;;;4973823;28;20061;-43
2021/05/13 05:19:23;;;;;;;12.73;8.95;;;10.10;99.90;;;;;;4973513;28;20103;-46
2021/05/13 05:21:50;;;;;;;13.80;9.07;;;10.10;99.90;;;;;;4973356;28;20027;-46
2021/05/13 05:24:15;;;;;;;8.95;8.15;;;10.20;99.90;;;;;;4973088;28;20026;-45
2021/05/13 05:26:42;;;;;;;8.43;7.53;;;10.30;99.90;;;;;;4973487;28;20031;-46
2021/05/13 05:29:07;;;;;;;8.15;7.32;;;10.40;99.90;;;;;;4973121;28;20437;-45
2021/05/13 05:31:33;;;;;;;7.97;7.28;;;10.40;99.90;;;;;;4973528;28;20039;-44
2021/05/13 05:33:59;;;;;;;8.52;7.82;;;10.50;99.90;;;;;;4972530;28;20050;-46
2021/05/13 05:36:27;;;;;;;9.80;8.30;;;10.70;99.90;;;;;;4973353;28;20468;-44
2021/05/13 05:38:54;;;;;;;9.10;8.30;;;10.80;99.90;;;;;;4973223;28;20488;-44
2021/05/13 05:41:21;;;;;;;11.50;7.78;;;11.00;99.90;;;;;;4973255;28;20435;-44
2021/05/13 05:43:46;;;;;;;8.70;7.95;;;11.10;99.90;;;;;;4972711;28;20030;-48
2021/05/13 05:46:12;;;;;;;8.02;7.32;;;11.20;99.90;;;;;;4973124;28;20126;-45
2021/05/13 05:48:37;;;;;;;9.45;8.55;;;11.30;99.90;;;;;;4972972;28;20042;-42
2021/05/13 05:51:03;;;;;;;8.45;7.60;;;11.50;99.90;;;;;;4972982;28;20034;-42
2021/05/13 05:53:28;;;;;;;10.07;8.45;;;11.60;99.90;;;;;;4972657;28;20377;-49
2021/05/13 05:55:54;;;;;;;8.95;8.15;;;11.60;99.90;;;;;;4973014;28;20114;-45
2021/05/13 05:58:19;;;;;;;9.35;8.48;;;11.70;99.90;;;;;;4972770;28;20369;-44
2021/05/13 06:00:45;;;;;;;11.88;8.63;;;11.60;99.90;;;;;;4972576;28;20031;-45
2021/05/13 06:03:10;;;;;;;9.63;8.73;;;11.70;99.90;;;;;;4972379;28;20409;-44
2021/05/13 06:05:36;;;;;;;11.10;10.00;;;11.70;99.90;;;;;;4972496;28;20034;-39
2021/05/13 06:08:01;;;;;;;10.25;9.30;;;11.70;99.90;;;;;;4972671;28;20038;-44
2021/05/13 06:10:27;;;;;;;11.63;10.43;;;11.70;99.90;;;;;;4972873;28;20395;-45
2021/05/13 06:12:53;;;;;;;10.57;9.55;;;11.80;99.90;;;;;;4973207;28;20034;-49
2021/05/13 06:15:21;;;;;;;14.20;12.40;;;11.90;99.90;;;;;;4973583;28;20073;-47
2021/05/13 06:17:47;;;;;;;14.40;12.98;;;11.70;99.90;;;;;;4973263;28;20118;-46
2021/05/13 06:20:24;;;;;;;14.38;12.90;;;11.80;99.90;;;;;;4972329;28;20066;-50
2021/05/13 06:22:50;;;;;;;13.90;12.60;;;11.70;99.90;;;;;;4972365;28;20023;-42
2021/05/13 06:25:17;;;;;;;13.50;12.20;;;11.60;99.90;;;;;;4972078;28;20110;-42
2021/05/13 06:27:43;;;;;;;13.70;10.75;;;11.60;99.90;;;;;;4972411;28;20026;-47
2021/05/13 06:30:10;;;;;;;26.30;11.45;;;11.80;99.90;;;;;;4972830;28;20122;-46
2021/05/13 06:32:36;;;;;;;14.75;11.40;;;11.90;99.90;;;;;;4972709;28;20480;-44
2021/05/13 06:35:01;;;;;;;15.43;12.55;;;12.00;99.90;;;;;;4972687;28;20023;-47
2021/05/13 06:37:27;;;;;;;15.35;12.85;;;12.10;99.90;;;;;;4972263;28;20054;-45
2021/05/13 06:39:53;;;;;;;13.30;12.02;;;12.20;99.90;;;;;;4972030;28;20557;-43
2021/05/13 06:42:18;;;;;;;14.10;12.73;;;12.00;99.90;;;;;;4972078;28;20034;-42
2021/05/13 06:44:44;;;;;;;15.20;13.43;;;12.10;99.90;;;;;;4971636;28;20058;-45
2021/05/13 06:47:12;;;;;;;15.27;13.68;;;12.00;99.90;;;;;;4971894;28;20023;-48
2021/05/13 06:49:38;;;;;;;15.57;14.02;;;12.10;99.90;;;;;;4971760;28;20034;-45
2021/05/13 06:52:04;;;;;;;21.73;13.95;;;12.10;99.90;;;;;;4971616;28;20138;-49
2021/05/13 06:54:30;;;;;;;16.35;14.65;;;12.10;99.90;;;;;;4970350;28;20023;-46
2021/05/13 06:56:55;;;;;;;15.35;13.73;;;12.10;99.90;;;;;;4971743;28;20041;-43
2021/05/13 06:59:21;;;;;;;15.52;13.55;;;12.30;99.90;;;;;;4971617;28;20098;-48
2021/05/13 07:01:47;;;;;;;14.57;13.13;;;12.40;99.90;;;;;;4971868;28;20045;-43
2021/05/13 07:04:12;;;;;;;13.73;11.73;;;12.60;99.90;;;;;;4971795;28;20065;-45
2021/05/13 07:06:38;;;;;;;13.73;12.27;;;12.70;99.90;;;;;;4971579;28;20019;-48
2021/05/13 07:09:06;;;;;;;16.17;14.52;;;12.80;99.90;;;;;;4975515;28;20142;-43
2021/05/13 07:11:33;;;;;;;17.92;15.48;;;13.30;99.90;;;;;;4978262;28;20023;-46
2021/05/13 07:13:58;;;;;;;17.63;12.85;;;13.40;99.90;;;;;;4978786;28;20394;-47
2021/05/13 07:16:25;;;;;;;16.15;13.70;;;13.70;99.90;;;;;;4986910;28;20101;-46
2021/05/13 07:18:52;;;;;;;15.40;12.43;;;14.00;99.90;;;;;;4997190;28;20098;-46
2021/05/13 07:21:18;;;;;;;13.75;12.32;;;14.20;99.90;;;;;;4996730;28;20030;-46
2021/05/13 07:23:44;;;;;;;15.00;13.07;;;14.50;99.90;;;;;;4994865;28;20100;-51
2021/05/13 07:26:10;;;;;;;17.25;15.45;;;14.60;99.90;;;;;;4995963;28;20074;-45
2021/05/13 07:28:37;;;;;;;15.00;13.40;;;14.90;99.90;;;;;;4982980;28;20045;-46
2021/05/13 07:31:03;;;;;;;18.55;14.02;;;15.10;99.90;;;;;;4985362;28;20084;-42
2021/05/13 07:33:29;;;;;;;18.60;14.85;;;15.20;99.90;;;;;;4977096;28;20039;-49
2021/05/13 07:35:54;;;;;;;19.58;15.68;;;15.40;99.90;;;;;;4976769;28;20023;-49
2021/05/13 07:38:20;;;;;;;19.95;17.02;;;15.50;99.90;;;;;;4980098;28;20081;-43
2021/05/13 07:40:45;;;;;;;19.40;17.33;;;15.30;99.90;;;;;;4991838;28;20026;-48
2021/05/13 07:43:11;;;;;;;19.88;16.75;;;15.20;99.90;;;;;;4982540;28;20086;-45
2021/05/13 07:45:42;;;;;;;17.75;15.07;;;15.30;99.90;;;;;;4983403;28;20114;-43
2021/05/13 07:48:08;;;;;;;20.38;16.50;;;15.50;99.90;;;;;;4982154;28;20026;-49
2021/05/13 07:50:34;;;;;;;18.38;16.27;;;15.60;99.90;;;;;;4979016;28;20026;-46
2021/05/13 07:53:00;;;;;;;16.20;14.27;;;15.80;99.90;;;;;;4988621;28;20026;-41
2021/05/13 07:55:26;;;;;;;18.85;16.45;;;15.90;99.90;;;;;;4989606;28;20039;-46
2021/05/13 07:57:51;;;;;;;25.52;17.38;;;16.10;99.90;;;;;;4981656;28;20037;-51
2021/05/13 08:00:17;;;;;;;23.25;18.10;;;16.60;99.70;;;;;;4997306;28;20030;-45
2021/05/13 08:02:43;;;;;;;22.25;16.65;;;17.00;99.00;;;;;;4997120;28;20105;-47
2021/05/13 08:05:10;;;;;;;18.08;16.17;;;17.90;97.30;;;;;;4997018;28;20034;-47
2021/05/13 08:07:36;;;;;;;19.60;15.98;;;18.30;96.40;;;;;;4997547;28;20023;-45
2021/05/13 08:10:02;;;;;;;19.23;15.73;;;19.60;94.70;;;;;;4997019;28;20506;-46
2021/05/13 08:12:27;;;;;;;14.60;12.15;;;20.80;92.80;;;;;;4997095;28;20448;-50
2021/05/13 08:14:53;;;;;;;15.85;13.43;;;22.10;90.70;;;;;;4997047;28;20100;-47
2021/05/13 08:17:18;;;;;;;15.85;13.20;;;23.30;86.00;;;;;;4997065;28;20058;-46
2021/05/13 08:19:44;;;;;;;17.02;14.32;;;23.90;82.90;;;;;;4995352;28;20058;-47
2021/05/13 08:22:09;;;;;;;17.30;14.63;;;24.40;78.70;;;;;;4994371;28;20567;-44
2021/05/13 08:24:35;;;;;;;15.85;14.05;;;25.00;76.90;;;;;;4994056;28;20030;-44
2021/05/13 08:27:01;;;;;;;20.30;17.55;;;25.30;74.80;;;;;;4995057;28;20091;-42
2021/05/13 08:29:31;;;;;;;18.48;16.55;;;25.40;71.30;;;;;;4994735;28;20040;-45
2021/05/13 08:31:57;;;;;;;20.38;15.88;;;25.00;71.60;;;;;;4994448;28;20033;-47
2021/05/13 08:34:22;;;;;;;21.42;16.98;;;24.30;74.10;;;;;;4994304;28;20091;-47
2021/05/13 08:36:48;;;;;;;16.90;14.68;;;24.00;75.70;;;;;;4994021;28;20522;-42
2021/05/13 08:39:13;;;;;;;17.25;15.35;;;23.60;76.90;;;;;;4993923;28;20037;-44
2021/05/13 08:41:39;;;;;;;18.83;15.40;;;23.50;77.50;;;;;;4994245;28;20049;-43
2021/05/13 08:44:09;;;;;;;18.30;14.23;;;23.20;77.60;;;;;;4993593;28;20092;-46
2021/05/13 08:46:36;;;;;;;23.40;15.80;;;23.00;78.80;;;;;;4993263;28;20075;-50
2021/05/13 08:49:03;;;;;;;18.42;16.00;;;23.10;80.30;;;;;;4984002;28;20031;-51
2021/05/13 08:51:30;;;;;;;15.55;13.90;;;23.10;80.00;;;;;;4974467;28;20047;-46
2021/05/13 08:53:57;;;;;;;17.75;14.68;;;23.30;80.30;;;;;;4973594;28;20113;-45
2021/05/13 08:56:25;;;;;;;17.50;15.00;;;23.50;79.00;;;;;;4981469;28;20183;-44
2021/05/13 08:58:51;;;;;;;18.15;14.27;;;23.40;78.40;;;;;;4982921;28;20546;-45
2021/05/13 09:01:18;;;;;;;13.63;11.98;;;23.20;78.00;;;;;;4982630;28;20038;-44
2021/05/13 09:03:46;;;;;;;13.05;10.57;;;23.10;77.60;;;;;;4980570;28;20049;-46
2021/05/13 09:06:36;;;;;;;14.90;11.90;;;23.20;76.90;;;;;;4993130;28;20061;-45
2021/05/13 09:09:13;;;;;;;14.88;13.30;;;23.40;78.70;;;;;;4991664;28;20063;-48
2021/05/13 09:11:48;;;;;;;15.30;12.10;;;23.50;77.70;;;;;;4993609;28;20399;-44
2021/05/13 09:14:23;;;;;;;14.10;12.07;;;23.50;77.70;;;;;;4994387;28;20040;-48
2021/05/13 09:16:49;;;;;;;12.95;10.90;;;23.40;78.80;;;;;;4994804;28;20030;-48
2021/05/13 09:19:23;;;;;;;16.52;10.52;;;23.20;78.60;;;;;;4993959;28;20030;-48
2021/05/13 09:21:57;;;;;;;13.82;10.73;;;23.10;79.60;;;;;;4995964;28;20023;-49
2021/05/13 09:24:55;;;;;;;17.67;9.75;;;23.20;78.50;;;;;;4997222;28;20085;-46
2021/05/13 09:27:34;;;;;;;13.70;8.85;;;23.00;77.20;;;;;;4981696;28;20027;-43
2021/05/13 09:30:08;;;;;;;15.13;11.10;;;23.00;76.60;;;;;;4975233;28;20034;-47
2021/05/13 09:32:35;;;;;;;13.55;9.98;;;22.40;78.10;;;;;;4975902;28;20499;-45
2021/05/13 09:35:16;;;;;;;11.35;10.13;;;22.30;79.40;;;;;;4976684;28;20030;-40
2021/05/13 09:37:48;;;;;;;11.57;8.43;;;22.30;81.50;;;;;;4984174;28;20030;-43
2021/05/13 09:40:18;;;;;;;10.30;6.93;;;22.40;81.80;;;;;;4976554;28;20023;-44
2021/05/13 09:42:43;;;;;;;8.45;7.00;;;22.60;77.60;;;;;;4987547;28;20026;-41
2021/05/13 09:45:09;;;;;;;8.40;6.57;;;22.50;78.00;;;;;;4976152;28;20085;-42
2021/05/13 09:47:37;;;;;;;8.40;6.57;;;22.40;78.50;;;;;;4973823;28;20025;-45
2021/05/13 09:50:21;;;;;;;8.02;4.88;;;22.40;77.80;;;;;;4976868;28;20027;-53
2021/05/13 09:52:56;;;;;;;6.43;4.47;;;22.40;74.60;;;;;;4990595;28;20034;-46
2021/05/13 09:55:24;;;;;;;8.13;4.47;;;22.30;74.80;;;;;;4988772;28;20050;-43
2021/05/13 09:58:10;;;;;;;7.20;4.43;;;22.00;75.30;;;;;;4977033;28;20059;-45
2021/05/13 10:00:37;;;;;;;;;;;21.70;74.50;;;;;;4992258;28;20385;-42
2021/05/13 10:03:07;;;;;;;7.70;4.03;;;21.50;73.20;;;;;;4992789;28;19956;-44
2021/05/13 10:05:33;;;;;;;8.02;3.38;;;21.50;72.30;;;;;;4987548;28;20034;-43
2021/05/13 10:07:59;;;;;;;9.15;4.25;;;21.50;72.70;;;;;;4977785;28;20450;-43
2021/05/13 10:10:24;;;;;;;7.45;5.05;;;21.50;74.60;;;;;;4975011;28;20498;-54
2021/05/13 10:12:53;;;;;;;12.10;5.32;;;21.40;77.00;;;;;;4992499;28;20027;-42
2021/05/13 10:15:19;;;;;;;7.53;5.40;;;21.20;77.50;;;;;;4976664;28;20035;-44
2021/05/13 10:17:46;;;;;;;7.93;4.95;;;21.10;76.10;;;;;;4978702;28;20492;-48
2021/05/13 10:20:19;;;;;;;4.82;2.75;;;21.10;76.40;;;;;;4985413;28;20114;-44
2021/05/13 10:22:46;;;;;;;7.10;2.80;;;21.10;70.90;;;;;;4979100;28;20027;-48
2021/05/13 10:25:29;;;;;;;4.93;1.85;;;21.20;68.00;;;;;;4992661;28;20054;-43
2021/05/13 10:28:01;;;;;;;4.95;1.83;;;21.20;68.80;;;;;;4974826;28;20070;-47
2021/05/13 10:30:29;;;;;;;5.85;1.92;;;21.20;66.80;;;;;;4991362;28;20038;-44
2021/05/13 10:33:15;;;;;;;6.63;3.13;;;21.10;64.80;;;;;;4988225;28;20436;-43
2021/05/13 10:36:00;;;;;;;6.50;2.40;;;20.90;65.80;;;;;;4975556;28;20027;-42
2021/05/13 10:38:45;;;;;;;5.47;2.47;;;21.00;68.20;;;;;;4992294;28;20518;-45
2021/05/13 10:41:29;;;;;;;3.78;2.55;;;20.90;69.30;;;;;;4987357;28;20035;-44
2021/05/13 10:43:55;;;;;;;5.80;2.83;;;21.00;68.30;;;;;;4981568;28;20019;-47
2021/05/13 10:46:28;;;;;;;4.18;2.22;;;20.90;68.90;;;;;;4977109;28;20026;-43
2021/05/13 10:49:19;;;;;;;6.68;3.20;;;20.80;72.00;;;;;;4980083;28;20026;-48
2021/05/13 10:51:47;;;;;;;4.93;2.45;;;20.90;70.70;;;;;;4972275;28;20073;-44
2021/05/13 10:54:27;;;;;;;6.70;3.25;;;20.60;68.60;;;;;;4973624;28;20054;-43
2021/05/13 10:57:19;;;;;;;6.88;2.58;;;20.40;71.20;;;;;;4982338;28;20026;-43
2021/05/13 11:00:04;;;;;;;6.35;2.58;;;20.40;70.70;;;;;;5007013;28;20022;-44
2021/05/13 11:02:46;;;;;;;8.50;2.58;;;20.50;70.10;;;;;;4990261;28;20027;-44
2021/05/13 11:05:27;;;;;;;4.60;2.35;;;20.60;70.20;;;;;;4991551;28;20037;-50
2021/05/13 11:08:03;;;;;;;11.27;2.45;;;20.60;71.00;;;;;;4973325;28;20026;-45
2021/05/13 11:10:48;;;;;;;4.00;2.05;;;20.70;70.10;;;;;;4985952;28;20113;-45
2021/05/13 11:13:14;;;;;;;3.63;1.90;;;20.60;70.60;;;;;;4971300;28;20129;-44
2021/05/13 11:15:46;;;;;;;4.18;1.20;;;20.50;68.80;;;;;;4971561;28;20027;-45
2021/05/13 11:18:13;;;;;;;3.92;1.50;;;20.50;62.80;;;;;;4971602;28;20038;-45
2021/05/13 11:20:45;;;;;;;5.68;1.30;;;20.50;61.40;;;;;;4971569;28;20070;-44
2021/05/13 11:23:34;;;;;;;2.85;1.02;;;20.50;58.50;;;;;;4971398;28;20026;-52
2021/05/13 11:26:02;;;;;;;2.88;1.20;;;20.50;59.80;;;;;;4986702;28;20609;-47
2021/05/13 11:28:43;;;;;;;4.20;1.80;;;20.50;62.50;;;;;;4970178;28;20403;-44
2021/05/13 11:31:14;;;;;;;4.03;1.20;;;20.50;63.00;;;;;;4971656;28;20039;-47
2021/05/13 11:33:56;;;;;;;3.00;0.98;;;20.40;62.20;;;;;;4971352;28;20026;-47
2021/05/13 11:36:25;;;;;;;3.85;1.35;;;20.40;63.70;;;;;;4971818;28;20027;-46
2021/05/13 11:38:59;;;;;;;2.45;1.40;;;20.30;62.00;;;;;;4971490;28;20034;-44
2021/05/13 11:41:26;;;;;;;2.22;1.15;;;20.30;61.60;;;;;;4972142;28;20045;-50
2021/05/13 11:43:52;;;;;;;5.35;1.70;;;20.30;61.00;;;;;;4971689;28;20047;-43
2021/05/13 11:46:23;;;;;;;3.10;1.63;;;20.30;62.50;;;;;;4972280;28;20083;-47
2021/05/13 11:48:50;;;;;;;5.72;2.65;;;20.40;64.00;;;;;;4971544;28;20165;-51
2021/05/13 11:51:27;;;;;;;3.75;1.80;;;20.40;65.30;;;;;;4971240;28;20492;-43
2021/05/13 11:53:57;;;;;;;5.38;1.88;;;20.30;66.30;;;;;;4971269;28;20023;-47
2021/05/13 11:56:25;;;;;;;3.35;1.65;;;20.30;66.20;;;;;;4975252;28;20027;-48
2021/05/13 11:58:52;;;;;;;11.50;2.17;;;20.40;66.30;;;;;;4974912;28;20369;-49
2021/05/13 12:01:30;;;;;;;20.13;5.45;;;20.40;66.00;;;;;;4973760;28;20039;-48
2021/05/13 12:04:05;;;;;;;9.52;2.40;;;20.40;67.50;;;;;;4974467;28;20452;-47
2021/05/13 12:06:41;;;;;;;;;;;20.30;68.20;;;;;;4974913;28;20019;-47
2021/05/13 12:09:06;;;;;;;10.02;3.45;;;20.50;71.80;;;;;;4974643;28;19910;-43
2021/05/13 12:11:32;;;;;;;8.05;2.80;;;20.60;70.10;;;;;;4974837;28;20019;-48
2021/05/13 12:13:58;;;;;;;49.70;13.90;;;20.60;68.30;;;;;;4975027;28;20106;-50
2021/05/13 12:16:26;;;;;;;30.70;9.18;;;20.60;71.90;;;;;;4975779;28;20033;-45
2021/05/13 12:19:00;;;;;;;35.78;8.60;;;20.70;70.60;;;;;;4975444;28;20034;-46
2021/05/13 12:21:25;;;;;;;33.30;8.32;;;20.80;69.20;;;;;;4975637;28;20030;-48
2021/05/13 12:23:51;;;;;;;5.15;2.10;;;20.80;70.70;;;;;;4975175;28;20037;-46
2021/05/13 12:26:25;;;;;;;18.45;5.70;;;20.80;69.40;;;;;;4975495;28;20034;-46
2021/05/13 12:28:52;;;;;;;14.88;4.38;;;21.00;68.80;;;;;;4973137;28;20023;-48
2021/05/13 12:31:45;;;;;;;8.80;2.55;;;21.00;66.40;;;;;;4975515;28;20125;-45
2021/05/13 12:34:30;;;;;;;8.63;2.55;;;21.00;66.00;;;;;;4971735;28;20042;-47
2021/05/13 12:36:55;;;;;;;3.67;1.60;;;20.90;64.80;;;;;;4974063;28;20069;-46
2021/05/13 12:39:29;;;;;;;10.13;2.15;;;20.80;64.50;;;;;;4973909;28;20054;-48
2021/05/13 12:41:55;;;;;;;4.40;1.73;;;20.70;65.60;;;;;;4973730;28;20030;-46
2021/05/13 12:44:32;;;;;;;3.85;1.80;;;20.40;68.30;;;;;;4973442;28;20023;-45
2021/05/13 12:47:04;;;;;;;3.22;1.88;;;20.10;71.10;;;;;;4974341;28;20500;-49
2021/05/13 12:49:31;;;;;;;5.60;1.65;;;19.70;73.20;;;;;;4973795;28;20038;-52
2021/05/13 12:52:04;;;;;;;6.93;1.83;;;19.50;74.60;;;;;;4973794;28;20031;-44
2021/05/13 12:54:31;;;;;;;8.02;2.75;;;19.40;74.90;;;;;;4972226;28;20019;-48